Time;durP1;ratioP1;P1;durP2;ratioP2;P2;SDS_P1;SDS_P2;PMS_P1;PMS_P2;Temp;Humidity;BMP_temperature;BMP_pressure;BME280_temperature;BME280_humidity;BME280_pressure;Samples;Min_cycle;Max_cycle;Signal;HPM_P1;HPM_P2
2022/01/05 00:00:21;;;;;;;1.67;1.57;;;;;;;6.07;69.21;97559.44;5014823;28;20237;-66
2022/01/05 00:02:48;;;;;;;1.67;1.60;;;;;;;4.39;72.38;97598.69;5022342;28;20230;-66
2022/01/05 00:05:15;;;;;;;1.90;1.80;;;;;;;4.31;74.36;97625.16;5015090;28;20246;-66
2022/01/05 00:07:42;;;;;;;1.60;1.50;;;;;;;5.21;73.39;97600.19;5020436;28;20233;-66
2022/01/05 00:10:09;;;;;;;1.87;1.77;;;;;;;5.26;72.40;97592.50;5024752;28;20224;-66
2022/01/05 00:12:36;;;;;;;2.00;1.90;;;;;;;6.00;70.20;97535.59;5024447;28;20409;-66
2022/01/05 00:15:04;;;;;;;1.93;1.83;;;;;;;4.90;72.05;97603.91;5025962;28;20613;-66
2022/01/05 00:17:31;;;;;;;1.90;1.80;;;;;;;5.34;71.93;97601.28;5019930;28;20229;-66
2022/01/05 00:19:58;;;;;;;1.80;1.70;;;;;;;6.33;69.89;97528.81;5022278;28;20820;-66
2022/01/05 00:22:25;;;;;;;1.50;1.50;;;;;;;6.40;67.87;97509.28;5017763;28;20233;-66
2022/01/05 00:24:52;;;;;;;1.50;1.50;;;;;;;5.52;69.73;97577.84;5025373;28;20229;-66
2022/01/05 00:27:19;;;;;;;2.30;2.20;;;;;;;4.73;72.71;97597.22;5022468;28;20221;-66
2022/01/05 00:29:46;;;;;;;2.10;2.00;;;;;;;4.07;75.38;97608.63;5021994;28;20637;-66
2022/01/05 00:32:13;;;;;;;1.50;1.50;;;;;;;7.14;68.11;97491.63;5018778;28;20229;-66
2022/01/05 00:34:40;;;;;;;2.37;2.27;;;;;;;6.51;68.06;97550.28;5030434;28;20239;-66
2022/01/05 00:37:07;;;;;;;1.60;1.60;;;;;;;6.02;70.16;97577.75;5022512;28;20247;-66
2022/01/05 00:39:34;;;;;;;2.20;2.10;;;;;;;6.35;67.78;97558.56;5020537;28;20222;-66
2022/01/05 00:42:02;;;;;;;1.53;1.43;;;;;;;7.34;66.28;97496.09;5016827;28;20221;-66
2022/01/05 00:44:30;;;;;;;4.10;3.20;;;;;;;7.28;65.97;97511.00;5024670;28;20221;-66
2022/01/05 00:46:56;;;;;;;1.70;1.60;;;;;;;7.26;66.54;97523.63;5019667;28;20236;-66
2022/01/05 00:49:24;;;;;;;1.80;1.70;;;;;;;7.46;65.42;97499.75;5020547;28;21141;-66
2022/01/05 00:51:51;;;;;;;1.93;1.83;;;;;;;7.69;64.95;97498.50;5019984;28;20238;-66
2022/01/05 00:54:18;;;;;;;2.20;2.10;;;;;;;5.79;68.22;97552.38;5018813;28;20247;-66
2022/01/05 00:56:45;;;;;;;1.77;1.67;;;;;;;7.55;65.87;97520.75;5019553;28;20589;-66
2022/01/05 00:59:12;;;;;;;2.13;2.03;;;;;;;6.52;68.40;97573.06;5021718;28;20251;-66
2022/01/05 01:01:38;;;;;;;1.70;1.60;;;;;;;7.31;66.01;97541.59;5024027;28;20619;-66
2022/01/05 01:04:06;;;;;;;1.97;1.53;;;;;;;6.75;68.92;97583.34;5021931;28;20705;-66
2022/01/05 01:06:33;;;;;;;2.10;2.00;;;;;;;7.27;66.74;97535.88;5020127;28;20232;-66
2022/01/05 01:09:00;;;;;;;1.87;1.77;;;;;;;5.52;69.16;97601.63;5017823;28;20229;-66
2022/01/05 01:11:27;;;;;;;1.90;1.80;;;;;;;6.66;69.55;97605.75;5027684;28;20229;-66
2022/01/05 01:13:54;;;;;;;2.00;1.90;;;;;;;7.84;65.78;97543.34;5023876;28;20231;-66
2022/01/05 01:16:21;;;;;;;1.60;1.60;;;;;;;6.94;65.78;97565.81;5032953;28;20290;-66
2022/01/05 01:18:49;;;;;;;2.30;2.20;;;;;;;5.86;72.03;97645.00;5028220;28;20238;-65
2022/01/05 01:21:16;;;;;;;1.87;1.77;;;;;;;5.42;71.89;97643.47;5019815;28;20881;-66
2022/01/05 01:23:53;;;;;;;2.13;2.03;;;;;;;6.31;69.13;97605.78;5028366;28;20230;-66
2022/01/05 01:26:22;;;;;;;1.53;1.53;;;;;;;5.53;72.47;97640.31;5027568;28;20230;-66
2022/01/05 01:28:50;;;;;;;2.00;1.90;;;;;;;5.26;73.00;97641.88;5027340;28;20239;-66
2022/01/05 01:31:17;;;;;;;3.17;2.57;;;;;;;6.14;68.91;97570.06;5018976;28;20220;-65
2022/01/05 01:33:45;;;;;;;2.47;2.30;;;;;;;8.11;65.09;97496.31;5027922;28;20225;-66
2022/01/05 01:36:12;;;;;;;2.00;1.90;;;;;;;7.48;66.79;97526.06;5026208;28;20222;-66
2022/01/05 01:38:41;;;;;;;2.03;1.93;;;;;;;7.90;65.90;97521.31;5027478;28;20228;-66
2022/01/05 01:41:10;;;;;;;2.30;2.20;;;;;;;6.26;67.84;97594.16;5029060;28;21886;-66
2022/01/05 01:43:37;;;;;;;2.00;1.90;;;;;;;8.22;64.18;97516.88;5036875;28;20717;-66
2022/01/05 01:46:05;;;;;;;1.90;1.80;;;;;;;6.56;70.22;97613.25;5027741;28;20228;-66
2022/01/05 01:48:32;;;;;;;2.37;2.17;;;;;;;7.91;66.27;97540.69;5027444;28;20274;-66
2022/01/05 01:50:59;;;;;;;2.03;1.93;;;;;;;7.40;65.68;97555.44;5023984;28;20584;-66
2022/01/05 01:53:26;;;;;;;2.17;2.07;;;;;;;6.47;71.92;97633.78;5040505;28;20220;-66
2022/01/05 01:55:57;;;;;;;2.50;2.30;;;;;;;5.22;72.74;97659.94;5030443;28;20228;-66
2022/01/05 01:58:26;;;;;;;2.60;2.40;;;;;;;7.43;67.22;97557.69;5027195;28;20229;-66
2022/01/05 02:00:54;;;;;;;2.50;2.30;;;;;;;6.25;71.47;97651.56;5019648;28;20242;-66
2022/01/05 02:03:21;;;;;;;2.40;2.30;;;;;;;6.06;71.88;97658.38;5040554;28;20220;-66
2022/01/05 02:05:48;;;;;;;2.77;2.57;;;;;;;8.14;65.37;97537.56;5031263;28;20237;-66
2022/01/05 02:08:15;;;;;;;3.07;2.87;;;;;;;7.50;66.27;97566.47;5019188;28;20243;-66
2022/01/05 02:10:43;;;;;;;3.40;3.20;;;;;;;8.20;64.63;97540.19;5027004;28;20233;-66
2022/01/05 02:13:10;;;;;;;3.10;2.80;;;;;;;7.15;68.01;97587.91;5027020;28;20226;-66
2022/01/05 02:15:40;;;;;;;3.10;2.80;;;;;;;7.08;68.42;97589.72;5027437;28;20226;-66
2022/01/05 02:18:21;;;;;;;2.60;2.40;;;;;;;4.88;71.15;97602.47;5026605;28;20724;-66
2022/01/05 02:20:49;;;;;;;2.60;2.43;;;;;;;6.65;69.02;97625.28;5025064;28;20481;-66
2022/01/05 02:23:16;;;;;;;2.73;2.30;;;;;;;7.13;68.21;97581.97;5016436;28;20223;-66
2022/01/05 02:25:43;;;;;;;2.30;2.20;;;;;;;5.59;73.44;97662.50;5026517;28;20235;-66
2022/01/05 02:28:10;;;;;;;2.80;2.60;;;;;;;6.18;72.69;97614.47;5026896;28;20224;-66
2022/01/05 02:30:38;;;;;;;2.83;2.60;;;;;;;6.72;70.31;97607.56;5018006;28;20303;-66
2022/01/05 02:33:05;;;;;;;2.30;2.10;;;;;;;5.51;74.09;97663.47;5025482;28;20236;-66
2022/01/05 02:35:32;;;;;;;3.10;2.80;;;;;;;7.19;66.53;97577.69;5026380;28;20220;-66
2022/01/05 02:37:59;;;;;;;2.50;2.30;;;;;;;8.02;65.08;97534.75;5026889;28;20224;-66
2022/01/05 02:40:27;;;;;;;2.60;2.40;;;;;;;7.49;64.57;97563.00;5026049;28;20231;-66
2022/01/05 02:42:57;;;;;;;2.93;2.73;;;;;;;8.15;64.93;97558.59;5027182;28;20750;-66
2022/01/05 02:45:24;;;;;;;2.77;2.57;;;;;;;8.62;63.75;97561.84;5027337;28;20220;-66
2022/01/05 02:47:52;;;;;;;3.63;2.63;;;;;;;7.16;63.92;97588.72;5026225;28;20767;-66
2022/01/05 02:50:19;;;;;;;2.53;2.33;;;;;;;7.92;64.77;97582.16;5025896;28;20220;-66
2022/01/05 02:52:46;;;;;;;3.27;2.80;;;;;;;7.52;65.49;97609.53;5022883;28;20234;-66
2022/01/05 02:55:13;;;;;;;3.20;3.00;;;;;;;7.17;67.09;97646.03;5038016;28;20763;-66
2022/01/05 02:57:40;;;;;;;2.53;2.33;;;;;;;8.70;62.44;97567.94;5046126;28;20231;-66
2022/01/05 03:00:10;;;;;;;3.23;2.93;;;;;;;8.81;62.55;97564.66;5019398;28;20239;-66
2022/01/05 03:02:37;;;;;;;3.00;2.80;;;;;;;8.64;62.46;97588.22;5045205;28;20672;-66
2022/01/05 03:05:04;;;;;;;4.40;2.70;;;;;;;9.14;61.65;97571.59;5043922;28;20231;-66
2022/01/05 03:07:34;;;;;;;2.57;2.30;;;;;;;8.35;63.04;97600.22;5046363;28;20234;-66
2022/01/05 03:10:01;;;;;;;2.60;2.40;;;;;;;8.33;63.89;97615.53;5045818;28;20703;-66
2022/01/05 03:12:28;;;;;;;2.63;2.20;;;;;;;7.55;65.19;97643.59;5032589;28;20231;-66
2022/01/05 03:14:55;;;;;;;1.90;1.80;;;;;;;7.89;64.27;97636.47;5026374;28;20224;-66
2022/01/05 03:17:22;;;;;;;2.40;2.17;;;;;;;8.74;62.41;97604.53;5026246;28;20991;-66
2022/01/05 03:19:49;;;;;;;2.50;2.00;;;;;;;8.68;62.64;97608.03;5024393;28;20228;-66
2022/01/05 03:22:16;;;;;;;2.73;2.00;;;;;;;8.06;64.09;97637.69;5024271;28;20227;-66
2022/01/05 03:24:43;;;;;;;1.90;1.80;;;;;;;8.54;62.77;97623.22;5026411;28;20222;-66
2022/01/05 03:27:10;;;;;;;3.60;2.63;;;;;;;8.57;63.15;97633.44;5025864;28;20617;-66
2022/01/05 03:29:37;;;;;;;3.53;2.00;;;;;;;8.47;63.87;97653.50;5001472;28;20225;-66
2022/01/05 03:32:05;;;;;;;2.80;2.30;;;;;;;8.68;62.80;97631.13;5036859;28;20230;-66
2022/01/05 03:34:32;;;;;;;3.13;2.33;;;;;;;9.24;60.84;97621.63;5026414;28;20224;-66
2022/01/05 03:37:00;;;;;;;2.40;2.20;;;;;;;9.03;61.92;97626.28;5024202;28;20233;-66
2022/01/05 03:39:27;;;;;;;2.30;2.10;;;;;;;8.21;62.87;97655.19;5024674;28;20216;-66
2022/01/05 03:41:54;;;;;;;4.10;2.67;;;;;;;8.51;63.04;97666.16;5026569;28;20234;-66
2022/01/05 03:44:22;;;;;;;2.50;2.30;;;;;;;8.51;62.61;97660.03;5025356;28;20221;-66
2022/01/05 03:46:50;;;;;;;3.37;2.60;;;;;;;8.81;62.60;97673.63;5030058;28;20243;-66
2022/01/05 03:49:17;;;;;;;2.60;2.40;;;;;;;9.14;61.58;97667.34;5029543;28;20229;-67
2022/01/05 03:51:45;;;;;;;2.93;2.73;;;;;;;8.75;61.96;97683.28;5030239;28;20232;-66
2022/01/05 03:54:13;;;;;;;2.20;2.00;;;;;;;7.55;64.46;97733.00;5029378;28;20216;-66
2022/01/05 03:56:39;;;;;;;3.23;2.47;;;;;;;7.94;62.79;97736.72;5029769;28;20232;-66
2022/01/05 03:59:06;;;;;;;2.60;2.40;;;;;;;8.04;62.35;97750.41;5027843;28;20993;-66
2022/01/05 04:01:34;;;;;;;2.30;2.20;;;;;;;8.23;60.99;97744.28;5023914;28;20225;-66
2022/01/05 04:04:01;;;;;;;1.73;1.63;;;;;;;6.54;65.21;97830.66;5029655;28;20225;-66
2022/01/05 04:06:28;;;;;;;2.33;2.13;;;;;;;7.10;63.56;97828.97;5029175;28;20723;-66
2022/01/05 04:08:55;;;;;;;2.60;2.00;;;;;;;8.25;60.88;97794.53;5028075;28;20232;-66
2022/01/05 04:11:21;;;;;;;1.70;1.60;;;;;;;8.57;60.06;97790.22;5028901;28;20217;-66
2022/01/05 04:13:48;;;;;;;2.10;2.00;;;;;;;8.83;58.68;97788.56;5029901;28;20228;-66
2022/01/05 04:16:15;;;;;;;2.10;1.90;;;;;;;8.64;58.07;97808.81;5028811;28;20231;-66
2022/01/05 04:18:42;;;;;;;1.90;1.80;;;;;;;8.33;58.09;97842.16;5029352;28;20246;-66
2022/01/05 04:21:11;;;;;;;1.60;1.60;;;;;;;8.13;58.11;97857.28;5029485;28;20221;-65
2022/01/05 04:23:38;;;;;;;1.77;1.67;;;;;;;7.53;59.18;97895.03;5029236;28;20584;-64
2022/01/05 04:26:05;;;;;;;1.97;1.87;;;;;;;7.28;58.39;97922.06;5029151;28;20220;-64
2022/01/05 04:28:32;;;;;;;1.63;1.53;;;;;;;7.11;57.26;97923.38;5028462;28;20236;-64
2022/01/05 04:30:59;;;;;;;2.93;2.07;;;;;;;7.08;56.28;97921.94;5020669;28;20228;-64
2022/01/05 04:33:26;;;;;;;1.70;1.60;;;;;;;6.79;56.26;97952.09;5029223;28;20231;-65
2022/01/05 04:36:13;;;;;;;2.17;1.93;;;;;;;7.12;54.98;97943.59;5026041;28;20219;-67
2022/01/05 04:38:40;;;;;;;1.50;1.50;;;;;;;7.41;54.67;97931.09;5018891;28;20251;-68
2022/01/05 04:41:07;;;;;;;2.00;1.90;;;;;;;7.69;54.33;97921.28;5026355;28;20216;-68
2022/01/05 04:43:34;;;;;;;1.90;1.80;;;;;;;7.78;55.39;97934.38;5020669;28;20227;-66
2022/01/05 04:46:00;;;;;;;1.60;1.50;;;;;;;6.77;57.43;97938.22;5022001;28;20231;-67
2022/01/05 04:48:29;;;;;;;1.53;1.53;;;;;;;7.04;57.81;97959.63;5021227;28;20224;-67
2022/01/05 04:50:56;;;;;;;1.60;1.50;;;;;;;7.16;57.70;97960.72;5019187;28;20231;-71
2022/01/05 04:53:23;;;;;;;4.03;1.53;;;;;;;7.58;56.89;97958.94;5020262;28;20233;-65
2022/01/05 04:55:50;;;;;;;1.50;1.50;;;;;;;7.08;57.56;97972.31;5020087;28;20263;-64
2022/01/05 04:58:17;;;;;;;2.37;1.63;;;;;;;7.39;56.50;97954.38;5022432;28;20238;-64
2022/01/05 05:00:43;;;;;;;1.73;1.63;;;;;;;6.73;57.59;97998.75;5019796;28;20225;-64
2022/01/05 05:03:12;;;;;;;1.97;1.87;;;;;;;7.18;56.21;97966.66;5022676;28;20223;-64
2022/01/05 05:05:39;;;;;;;1.60;1.60;;;;;;;7.47;56.08;97978.91;5024531;28;20229;-65
2022/01/05 05:08:06;;;;;;;1.47;1.47;;;;;;;6.89;56.40;98010.09;5028310;28;20224;-64
2022/01/05 05:10:33;;;;;;;1.87;1.77;;;;;;;7.18;55.82;97989.72;5021153;28;20234;-65
2022/01/05 05:13:07;;;;;;;2.10;2.00;;;;;;;7.40;55.10;97987.81;5027927;28;20236;-64
2022/01/05 05:15:33;;;;;;;1.93;1.83;;;;;;;7.07;55.07;98005.13;5028318;28;20746;-65
2022/01/05 05:18:00;;;;;;;2.10;1.70;;;;;;;7.57;53.87;97977.72;5039170;28;20741;-64
2022/01/05 05:20:27;;;;;;;1.90;1.80;;;;;;;7.49;54.59;97999.94;5023573;28;20223;-64
2022/01/05 05:22:54;;;;;;;2.40;2.30;;;;;;;6.74;55.62;98028.69;5028350;28;20295;-64
2022/01/05 05:25:21;;;;;;;1.90;1.80;;;;;;;6.95;55.27;98027.88;5027776;28;20640;-64
2022/01/05 05:27:48;;;;;;;2.37;2.20;;;;;;;6.50;56.70;98051.09;5028047;28;20233;-64
2022/01/05 05:30:32;;;;;;;1.60;1.60;;;;;;;6.53;57.32;98070.06;5024506;28;20239;-64
2022/01/05 05:32:58;;;;;;;2.30;2.20;;;;;;;6.28;57.03;98066.91;5028005;28;20232;-64
2022/01/05 05:35:29;;;;;;;1.90;1.80;;;;;;;5.83;58.07;98093.41;5027857;28;20612;-64
2022/01/05 05:37:56;;;;;;;2.23;2.03;;;;;;;6.52;57.17;98080.84;5027757;28;20620;-64
2022/01/05 05:40:24;;;;;;;2.07;1.97;;;;;;;6.14;59.07;98118.06;5021634;28;20216;-65
2022/01/05 05:42:51;;;;;;;2.33;1.80;;;;;;;6.35;57.83;98104.91;5027894;28;20228;-64
2022/01/05 05:45:18;;;;;;;2.97;2.77;;;;;;;6.62;55.55;98099.09;5027790;28;20238;-65
2022/01/05 05:47:45;;;;;;;2.53;2.23;;;;;;;6.18;55.84;98116.66;5027506;28;20228;-64
2022/01/05 05:50:12;;;;;;;3.93;2.70;;;;;;;7.08;54.86;98096.94;5026571;28;20224;-64
2022/01/05 05:52:39;;;;;;;2.50;2.30;;;;;;;6.19;57.89;98152.75;5027496;28;20228;-64
2022/01/05 05:55:07;;;;;;;3.83;2.57;;;;;;;6.54;56.08;98142.41;5027710;28;20228;-64
2022/01/05 05:57:42;;;;;;;4.27;2.60;;;;;;;5.74;55.15;98133.34;5027190;28;20228;-64
2022/01/05 06:00:11;;;;;;;2.50;2.30;;;;;;;5.55;55.40;98179.66;5027015;28;20231;-65
2022/01/05 06:02:38;;;;;;;3.77;2.40;;;;;;;5.87;55.43;98186.47;5026384;28;20229;-63
2022/01/05 06:05:05;;;;;;;3.73;2.27;;;;;;;6.02;53.80;98189.97;5027419;28;20229;-64
2022/01/05 06:07:33;;;;;;;5.03;2.70;;;;;;;5.83;54.10;98185.19;5026674;28;20223;-65
2022/01/05 06:10:00;;;;;;;2.90;2.30;;;;;;;5.76;54.05;98182.44;5020255;28;20980;-64
2022/01/05 06:12:27;;;;;;;5.23;2.60;;;;;;;5.42;55.47;98196.94;5033182;28;20227;-64
2022/01/05 06:14:54;;;;;;;3.93;2.80;;;;;;;5.90;54.27;98193.22;5031004;28;20235;-64
2022/01/05 06:17:21;;;;;;;4.13;2.60;;;;;;;6.73;53.06;98167.53;5027184;28;20827;-65
2022/01/05 06:19:48;;;;;;;4.47;2.30;;;;;;;4.69;55.52;98164.66;5026562;28;20596;-64
2022/01/05 06:22:15;;;;;;;3.33;2.50;;;;;;;5.50;54.74;98217.22;5019772;28;20224;-65
2022/01/05 06:24:47;;;;;;;3.07;2.63;;;;;;;5.74;54.82;98220.66;5026721;28;20246;-64
2022/01/05 06:27:14;;;;;;;2.90;2.70;;;;;;;5.23;54.88;98200.88;5019074;28;20238;-64
2022/01/05 06:29:41;;;;;;;3.83;2.53;;;;;;;6.18;53.62;98202.22;5026451;28;20240;-64
2022/01/05 06:32:08;;;;;;;3.30;2.60;;;;;;;5.82;55.13;98213.47;5026831;28;20242;-65
2022/01/05 06:34:35;;;;;;;3.30;2.30;;;;;;;5.95;53.37;98201.44;5034546;28;20580;-64
2022/01/05 06:37:03;;;;;;;3.20;2.90;;;;;;;5.78;54.41;98214.00;5040481;28;20231;-65
2022/01/05 06:39:31;;;;;;;3.93;2.73;;;;;;;5.75;55.26;98246.09;5021462;28;20228;-64
2022/01/05 06:41:58;;;;;;;4.23;2.90;;;;;;;5.62;55.41;98250.19;5025373;28;20231;-64
2022/01/05 06:44:25;;;;;;;3.93;2.73;;;;;;;5.53;55.73;98263.63;5026523;28;20225;-64
2022/01/05 06:46:52;;;;;;;5.20;3.23;;;;;;;5.30;55.29;98266.28;5026719;28;20232;-64
2022/01/05 06:49:21;;;;;;;5.23;3.10;;;;;;;4.78;55.83;98268.44;5026497;28;20241;-65
2022/01/05 06:51:48;;;;;;;3.97;3.27;;;;;;;4.83;56.35;98273.22;5019366;28;20232;-65
2022/01/05 06:54:15;;;;;;;4.80;3.23;;;;;;;5.31;55.12;98273.19;5034309;28;20223;-65
2022/01/05 06:56:42;;;;;;;8.73;3.27;;;;;;;5.08;56.73;98279.28;5030905;28;20615;-64
2022/01/05 06:59:09;;;;;;;4.27;3.10;;;;;;;4.72;57.01;98279.69;5026317;28;20228;-64
2022/01/05 07:01:36;;;;;;;4.00;2.83;;;;;;;4.36;57.63;98295.97;5026012;28;20220;-65
2022/01/05 07:04:03;;;;;;;5.30;3.30;;;;;;;4.77;56.77;98285.31;5026352;28;20237;-64
2022/01/05 07:06:30;;;;;;;5.53;3.57;;;;;;;4.74;57.88;98309.44;5025730;28;20231;-64
2022/01/05 07:08:57;;;;;;;4.03;3.63;;;;;;;4.32;57.74;98294.66;5021138;28;20220;-64
2022/01/05 07:11:24;;;;;;;7.60;3.10;;;;;;;4.06;58.73;98329.94;5025854;28;20602;-64
2022/01/05 07:13:51;;;;;;;4.60;2.90;;;;;;;3.98;58.16;98328.16;5026228;28;20784;-65
2022/01/05 07:16:18;;;;;;;4.77;3.03;;;;;;;4.63;57.41;98342.28;5025821;28;20232;-64
2022/01/05 07:18:45;;;;;;;3.70;2.97;;;;;;;4.20;57.90;98351.41;5043089;28;20258;-63
2022/01/05 07:21:12;;;;;;;6.87;3.53;;;;;;;5.53;56.14;98327.97;5047241;28;20224;-63
2022/01/05 07:23:49;;;;;;;5.60;3.30;;;;;;;4.38;56.80;98336.22;5049000;28;20274;-65
2022/01/05 07:26:16;;;;;;;6.47;3.60;;;;;;;5.01;55.61;98331.19;5044344;28;20234;-64
2022/01/05 07:28:44;;;;;;;5.43;3.53;;;;;;;4.36;57.75;98370.69;5025939;28;20244;-64
2022/01/05 07:31:11;;;;;;;6.73;3.50;;;;;;;3.83;56.41;98315.75;5040568;28;20222;-64
2022/01/05 07:33:38;;;;;;;9.47;3.53;;;;;;;4.33;57.36;98389.53;5028144;28;20252;-64
2022/01/05 07:36:05;;;;;;;6.03;3.53;;;;;;;5.16;57.25;98377.03;5036427;28;20227;-63
2022/01/05 07:38:32;;;;;;;4.50;3.40;;;;;;;5.14;56.27;98371.06;5030727;28;20240;-64
2022/01/05 07:40:59;;;;;;;5.77;3.30;;;;;;;4.85;56.17;98371.63;5027701;28;20231;-65
2022/01/05 07:43:26;;;;;;;5.90;3.10;;;;;;;5.33;54.65;98359.28;5029877;28;20223;-64
2022/01/05 07:45:54;;;;;;;4.27;3.30;;;;;;;4.80;56.17;98400.38;5029431;28;20602;-64
2022/01/05 07:48:21;;;;;;;5.87;4.03;;;;;;;5.02;56.18;98409.44;5028184;28;20724;-64
2022/01/05 07:50:48;;;;;;;8.60;3.83;;;;;;;4.69;55.96;98396.28;5029438;28;20981;-63
2022/01/05 07:53:15;;;;;;;4.87;3.40;;;;;;;5.42;54.87;98392.63;5021954;28;20231;-65
2022/01/05 07:55:42;;;;;;;5.53;3.23;;;;;;;5.62;54.78;98398.31;5027872;28;20618;-63
2022/01/05 07:58:09;;;;;;;5.30;3.60;;;;;;;5.18;54.97;98395.38;5035837;28;20228;-64
2022/01/05 08:00:36;;;;;;;6.03;3.47;;;;;;;5.50;53.03;98396.25;5040579;28;20230;-65
2022/01/05 08:03:03;;;;;;;8.23;3.70;;;;;;;4.64;55.25;98425.00;5029681;28;20945;-65
2022/01/05 08:05:31;;;;;;;5.87;2.80;;;;;;;5.59;54.62;98419.81;5031789;28;20230;-64
2022/01/05 08:07:58;;;;;;;5.33;3.00;;;;;;;5.00;53.72;98428.13;5029457;28;20232;-65
2022/01/05 08:10:25;;;;;;;4.27;3.37;;;;;;;4.50;54.99;98431.75;5023486;28;20259;-64
2022/01/05 08:12:52;;;;;;;5.87;3.33;;;;;;;4.22;56.62;98439.19;5029345;28;20646;-65
2022/01/05 08:15:19;;;;;;;4.57;3.40;;;;;;;5.05;53.83;98422.31;5029516;28;20856;-65
2022/01/05 08:17:45;;;;;;;5.70;3.87;;;;;;;5.78;54.53;98412.47;5029374;28;20231;-64
2022/01/05 08:20:13;;;;;;;6.53;3.87;;;;;;;6.05;54.16;98407.69;5028698;28;20222;-64
2022/01/05 08:22:41;;;;;;;7.03;4.00;;;;;;;5.01;55.75;98426.31;5029266;28;20232;-65
2022/01/05 08:25:10;;;;;;;6.67;4.20;;;;;;;5.67;55.11;98429.56;5029233;28;20241;-64
2022/01/05 08:27:45;;;;;;;8.90;4.10;;;;;;;5.10;55.28;98438.50;5028736;28;20232;-64
2022/01/05 08:30:18;;;;;;;7.50;3.77;;;;;;;5.18;54.06;98450.91;5026566;28;20228;-64
2022/01/05 08:32:46;;;;;;;10.57;3.97;;;;;;;4.97;54.76;98459.34;5029172;28;20242;-64
2022/01/05 08:35:18;;;;;;;4.57;3.17;;;;;;;5.24;53.93;98452.84;5027627;28;20224;-64
2022/01/05 08:37:46;;;;;;;6.87;3.33;;;;;;;5.29;51.92;98463.72;5029195;28;20727;-65
2022/01/05 08:40:16;;;;;;;7.93;4.20;;;;;;;5.48;52.30;98454.59;5023172;28;20241;-65
2022/01/05 08:42:43;;;;;;;8.80;4.50;;;;;;;5.69;52.69;98450.56;5029103;28;20238;-65
2022/01/05 08:45:12;;;;;;;7.70;3.67;;;;;;;5.70;50.83;98442.44;5028793;28;20230;-65
2022/01/05 08:47:39;;;;;;;7.87;3.60;;;;;;;5.95;52.45;98463.47;5024917;28;20236;-65
2022/01/05 08:50:06;;;;;;;5.70;3.87;;;;;;;5.53;53.46;98476.06;5043033;28;20234;-64
2022/01/05 08:52:33;;;;;;;7.93;4.00;;;;;;;6.38;52.43;98451.50;5031948;28;20708;-65
2022/01/05 08:55:00;;;;;;;10.40;4.23;;;;;;;4.87;54.67;98483.25;5028855;28;20235;-64
2022/01/05 08:57:27;;;;;;;6.13;3.37;;;;;;;5.07;53.04;98473.19;5028588;28;20224;-65
2022/01/05 08:59:54;;;;;;;8.07;3.97;;;;;;;5.07;53.38;98479.34;5028338;28;20599;-64
2022/01/05 09:02:21;;;;;;;11.13;4.00;;;;;;;5.70;53.30;98473.34;5020610;28;20224;-64
2022/01/05 09:04:51;;;;;;;7.90;3.70;;;;;;;4.38;52.76;98444.47;5019555;28;20231;-64
2022/01/05 09:07:19;;;;;;;7.93;3.37;;;;;;;4.74;53.30;98491.72;5021265;28;20238;-64
2022/01/05 09:09:46;;;;;;;11.50;6.30;;;;;;;5.38;52.78;98496.25;5020584;28;20304;-65
2022/01/05 09:12:13;;;;;;;17.03;7.13;;;;;;;5.05;53.81;98497.16;5020171;28;20219;-64
2022/01/05 09:14:40;;;;;;;5.47;3.33;;;;;;;4.57;53.43;98514.66;5019602;28;20225;-65
2022/01/05 09:17:07;;;;;;;6.73;3.37;;;;;;;4.37;54.09;98493.00;5022388;28;20234;-64
2022/01/05 09:19:35;;;;;;;8.30;4.57;;;;;;;5.36;53.49;98506.19;5018965;28;20872;-65
2022/01/05 09:22:03;;;;;;;10.03;4.33;;;;;;;5.31;53.90;98519.09;5026473;28;20266;-64
2022/01/05 09:24:48;;;;;;;13.27;7.50;;;;;;;5.65;53.03;98517.03;5027564;28;21345;-64
2022/01/05 09:27:16;;;;;;;11.70;6.57;;;;;;;5.97;52.36;98491.44;5028124;28;20227;-65
2022/01/05 09:29:44;;;;;;;12.30;6.77;;;;;;;5.40;53.54;98537.44;5027818;28;20233;-63
2022/01/05 09:32:11;;;;;;;14.17;7.13;;;;;;;6.54;51.54;98489.47;5027610;28;20228;-64
2022/01/05 09:34:40;;;;;;;20.77;13.13;;;;;;;6.57;51.51;98494.41;5025767;28;20303;-64
2022/01/05 09:37:14;;;;;;;12.43;6.10;;;;;;;5.35;53.21;98537.09;5027679;28;20235;-65
2022/01/05 09:42:27;;;;;;;8.30;3.93;;;;;;;5.47;52.38;98548.16;5026181;28;20230;-65
2022/01/05 09:44:57;;;;;;;8.93;3.90;;;;;;;5.48;52.47;98555.13;5027563;28;20225;-64
2022/01/05 09:48:10;;;;;;;9.93;4.27;;;;;;;4.95;52.76;98554.66;5032285;28;20224;-64
2022/01/05 09:50:50;;;;;;;14.30;4.10;;;;;;;4.87;52.93;98555.44;5019172;28;20259;-64
2022/01/05 09:53:17;;;;;;;10.93;4.47;;;;;;;5.50;52.59;98553.13;5027540;28;20216;-65
2022/01/05 09:55:47;;;;;;;11.13;4.40;;;;;;;5.28;52.94;98557.28;5027629;28;20225;-66
2022/01/05 09:58:14;;;;;;;9.97;4.53;;;;;;;4.87;53.16;98566.03;5027243;28;20235;-64
2022/01/05 10:00:41;;;;;;;9.17;4.40;;;;;;;6.14;52.55;98546.97;5027857;28;20233;-64
2022/01/05 10:03:10;;;;;;;10.20;4.17;;;;;;;5.47;52.87;98542.88;5027309;28;20233;-65
2022/01/05 10:05:37;;;;;;;9.97;4.40;;;;;;;5.73;53.20;98558.53;5026184;28;20233;-64
2022/01/05 10:08:05;;;;;;;9.70;4.80;;;;;;;5.26;53.81;98552.16;5026967;28;20246;-63
2022/01/05 10:10:32;;;;;;;9.00;4.17;;;;;;;5.79;53.17;98547.25;5020891;28;20236;-64
2022/01/05 10:13:00;;;;;;;7.57;3.97;;;;;;;5.16;54.73;98548.03;5027270;28;20225;-63
2022/01/05 10:15:28;;;;;;;10.37;4.30;;;;;;;4.20;54.92;98526.44;5027038;28;20414;-64
2022/01/05 10:18:15;;;;;;;6.27;4.00;;;;;;;4.86;53.26;98574.94;5026852;28;20247;-64
2022/01/05 10:20:56;;;;;;;8.97;4.07;;;;;;;4.42;53.61;98527.66;5026248;28;20619;-65
2022/01/05 10:23:33;;;;;;;6.17;3.73;;;;;;;4.99;54.86;98573.63;5027289;28;20239;-65
2022/01/05 10:26:24;;;;;;;9.37;4.13;;;;;;;4.74;52.97;98549.81;5025453;28;20243;-65
2022/01/05 10:29:13;;;;;;;12.03;3.93;;;;;;;5.03;53.09;98586.38;5026553;28;20546;-65
2022/01/05 10:31:41;;;;;;;12.03;4.57;;;;;;;5.45;52.72;98572.13;5026695;28;20233;-65
2022/01/05 10:34:27;;;;;;;12.67;4.47;;;;;;;4.47;52.50;98566.78;5046857;28;20265;-66
2022/01/05 10:36:57;;;;;;;9.17;3.60;;;;;;;4.54;51.82;98594.19;5045886;28;20238;-65
2022/01/05 10:39:35;;;;;;;8.77;4.23;;;;;;;4.88;53.32;98602.00;5030838;28;20224;-65
2022/01/05 10:42:04;;;;;;;12.13;4.90;;;;;;;5.35;53.05;98571.50;5018485;28;20227;-65
2022/01/05 10:44:31;;;;;;;9.80;4.53;;;;;;;5.17;53.74;98566.38;5026777;28;20234;-65
2022/01/05 10:46:59;;;;;;;7.93;4.00;;;;;;;4.36;53.80;98574.00;5027882;28;20228;-66
2022/01/05 10:49:40;;;;;;;9.70;3.57;;;;;;;4.19;53.90;98585.50;5033198;28;20224;-66
2022/01/05 10:52:26;;;;;;;7.77;3.70;;;;;;;4.29;53.00;98595.94;5025035;28;20216;-65
2022/01/05 10:55:06;;;;;;;9.17;3.70;;;;;;;4.71;52.83;98582.66;5020896;28;20788;-65
2022/01/05 10:57:33;;;;;;;7.73;3.80;;;;;;;4.50;52.45;98583.13;5026843;28;20230;-66
2022/01/05 11:00:00;;;;;;;7.73;4.30;;;;;;;5.22;52.40;98587.84;5025020;28;20233;-65
2022/01/05 11:03:47;;;;;;;9.87;3.87;;;;;;;2.60;57.90;98661.88;5097713;27;20361;-66
2022/01/05 11:06:16;;;;;;;8.93;3.93;;;;;;;2.54;56.34;98657.19;5058545;28;20230;-66
2022/01/05 11:09:01;;;;;;;9.00;4.27;;;;;;;2.76;54.72;98661.22;5066895;28;20228;-66
2022/01/05 11:11:42;;;;;;;9.47;4.03;;;;;;;2.82;54.62;98646.63;5063604;28;20222;-66
2022/01/05 11:14:14;;;;;;;2.83;2.53;;;;;;;2.94;55.38;98658.59;5079786;28;20713;-66
2022/01/05 11:16:46;;;;;;;8.37;3.83;;;;;;;3.21;55.03;98655.06;5079283;28;20670;-66
2022/01/05 11:19:24;;;;;;;6.27;4.37;;;;;;;2.59;56.36;98646.22;5064499;28;20229;-66
2022/01/05 11:22:02;;;;;;;10.33;4.17;;;;;;;2.91;56.45;98640.47;5063394;28;20219;-66
2022/01/05 11:24:38;;;;;;;9.00;3.70;;;;;;;2.80;56.29;98619.63;5059244;28;20260;-66
2022/01/05 11:27:32;;;;;;;8.97;4.17;;;;;;;2.96;56.38;98635.56;5061084;28;20244;-66
2022/01/05 11:30:00;;;;;;;7.97;3.47;;;;;;;2.86;56.91;98643.56;5052236;28;20859;-66
2022/01/05 11:32:30;;;;;;;12.53;4.90;;;;;;;2.81;56.75;98618.63;5056295;28;20218;-66
2022/01/05 11:34:58;;;;;;;10.33;4.37;;;;;;;3.21;56.77;98636.63;5045007;28;20233;-66
2022/01/05 11:37:24;;;;;;;8.70;3.77;;;;;;;3.05;56.42;98626.78;5060050;28;20234;-66
2022/01/05 11:39:54;;;;;;;6.17;3.77;;;;;;;3.04;57.21;98646.19;5076364;28;20222;-66
2022/01/05 11:42:31;;;;;;;9.33;4.17;;;;;;;2.81;56.84;98619.44;5082395;28;20227;-66
2022/01/05 11:44:59;;;;;;;7.77;3.57;;;;;;;2.81;56.92;98635.25;5079105;28;20784;-66
2022/01/05 11:47:30;;;;;;;8.03;3.70;;;;;;;2.33;56.59;98628.50;5081713;28;20232;-66
2022/01/05 11:50:23;;;;;;;7.53;3.30;;;;;;;2.29;56.20;98608.69;5068441;28;20231;-66
2022/01/05 11:53:01;;;;;;;8.23;3.70;;;;;;;2.95;56.26;98597.06;5075750;28;20579;-66